aviador You're here:

USSS Decoded Metar

SVERDLOVSK in RUSSIA
Report Time2017-06-28 07:00:00
UTC Time2017-06-28 07:13:10
Flight Rules vfr VFR
Wind230° at 14 kt
W.Decomp.*RWY 26: 10.1 kt HW 9.7 kt LCW
W.Rank230° ranks 13
Current wind is above 230° avg. (8.1)
Visibility9999 m
Phenomena:N/A
Clouds:N/A
Expected CloudBase > 4,400 ft AGL from Temp-Dew spread
CeilingNone
Temp22°C (ISA +9)
Dew Point11°C (50% RH)
AAT17.3°C
QNH1008 hPa
Density Alt2,103 ft
Elevation764 ft
Report Wrong Elevation
Raw Report
USSS 280700Z 23007MPS CAVOK 22/11 Q1008 R26R/010060 NOSIG RMK
QFE735/0981=

Extra information for USSS:More info

Metar Taf Metar & Taf Last 4 Metars F.Rules Stats Wind Profile Meteogram Temp Stats Airport Information Weather charts Add Link Nearby VenuesMetar ALERT Operation Metar Decoded Social comments